sensor_id;sensor_type;location;lat;lon;timestamp;temperature;humidity
19242;DHT22;9755;47.790;9.620;2023-05-14T00:01:19;10.30;99.90
19242;DHT22;9755;47.790;9.620;2023-05-14T00:03:46;10.30;99.90
19242;DHT22;9755;47.790;9.620;2023-05-14T00:06:14;10.30;99.90
19242;DHT22;9755;47.790;9.620;2023-05-14T00:08:43;10.40;99.90
19242;DHT22;9755;47.790;9.620;2023-05-14T00:11:10;10.40;99.90
19242;DHT22;9755;47.790;9.620;2023-05-14T00:13:37;10.40;99.90
19242;DHT22;9755;47.790;9.620;2023-05-14T00:16:08;10.40;99.90
19242;DHT22;9755;47.790;9.620;2023-05-14T00:18:38;10.50;99.90
19242;DHT22;9755;47.790;9.620;2023-05-14T00:21:06;10.50;99.90
19242;DHT22;9755;47.790;9.620;2023-05-14T00:23:39;10.40;99.90
19242;DHT22;9755;47.790;9.620;2023-05-14T00:26:08;10.50;99.90
19242;DHT22;9755;47.790;9.620;2023-05-14T00:28:38;10.50;99.90
19242;DHT22;9755;47.790;9.620;2023-05-14T00:31:06;10.50;99.90
19242;DHT22;9755;47.790;9.620;2023-05-14T00:33:33;10.50;99.90
19242;DHT22;9755;47.790;9.620;2023-05-14T00:36:00;10.50;99.90
19242;DHT22;9755;47.790;9.620;2023-05-14T00:38:28;10.50;99.90
19242;DHT22;9755;47.790;9.620;2023-05-14T00:40:55;10.50;99.90
19242;DHT22;9755;47.790;9.620;2023-05-14T00:43:24;10.50;99.90
19242;DHT22;9755;47.790;9.620;2023-05-14T00:45:53;10.50;99.90
19242;DHT22;9755;47.790;9.620;2023-05-14T00:48:24;10.60;99.90
19242;DHT22;9755;47.790;9.620;2023-05-14T00:50:51;10.60;99.90
19242;DHT22;9755;47.790;9.620;2023-05-14T00:53:18;10.60;99.90
19242;DHT22;9755;47.790;9.620;2023-05-14T00:55:49;10.50;99.90
19242;DHT22;9755;47.790;9.620;2023-05-14T00:58:23;10.50;99.90
19242;DHT22;9755;47.790;9.620;2023-05-14T01:00:50;10.50;99.90
19242;DHT22;9755;47.790;9.620;2023-05-14T01:03:20;10.50;99.90
19242;DHT22;9755;47.790;9.620;2023-05-14T01:05:55;10.50;99.90
19242;DHT22;9755;47.790;9.620;2023-05-14T01:08:31;10.50;99.90
19242;DHT22;9755;47.790;9.620;2023-05-14T01:11:05;10.50;99.90
19242;DHT22;9755;47.790;9.620;2023-05-14T01:13:40;10.50;99.90
19242;DHT22;9755;47.790;9.620;2023-05-14T01:16:12;10.50;99.90
19242;DHT22;9755;47.790;9.620;2023-05-14T01:18:40;10.50;99.90
19242;DHT22;9755;47.790;9.620;2023-05-14T01:21:33;10.50;99.90
19242;DHT22;9755;47.790;9.620;2023-05-14T01:24:02;10.50;99.90
19242;DHT22;9755;47.790;9.620;2023-05-14T01:26:29;10.50;99.90
19242;DHT22;9755;47.790;9.620;2023-05-14T01:31:43;10.50;99.90
19242;DHT22;9755;47.790;9.620;2023-05-14T01:34:13;10.50;99.90
19242;DHT22;9755;47.790;9.620;2023-05-14T01:36:42;10.60;99.90
19242;DHT22;9755;47.790;9.620;2023-05-14T01:39:10;10.60;99.90
19242;DHT22;9755;47.790;9.620;2023-05-14T01:41:41;10.60;99.90
19242;DHT22;9755;47.790;9.620;2023-05-14T01:44:08;10.60;99.90
19242;DHT22;9755;47.790;9.620;2023-05-14T01:46:39;10.60;99.90
19242;DHT22;9755;47.790;9.620;2023-05-14T01:49:09;10.50;99.90
19242;DHT22;9755;47.790;9.620;2023-05-14T01:51:36;10.50;99.90
19242;DHT22;9755;47.790;9.620;2023-05-14T01:54:04;10.60;99.90
19242;DHT22;9755;47.790;9.620;2023-05-14T01:56:31;10.60;99.90
19242;DHT22;9755;47.790;9.620;2023-05-14T01:58:59;10.70;99.90
19242;DHT22;9755;47.790;9.620;2023-05-14T02:01:26;10.70;99.90
19242;DHT22;9755;47.790;9.620;2023-05-14T02:03:53;10.70;99.90
19242;DHT22;9755;47.790;9.620;2023-05-14T02:06:20;10.60;99.90
19242;DHT22;9755;47.790;9.620;2023-05-14T02:08:47;10.70;99.90
19242;DHT22;9755;47.790;9.620;2023-05-14T02:11:15;10.70;99.90
19242;DHT22;9755;47.790;9.620;2023-05-14T02:13:45;10.70;99.90
19242;DHT22;9755;47.790;9.620;2023-05-14T02:16:12;10.70;99.90
19242;DHT22;9755;47.790;9.620;2023-05-14T02:18:39;10.70;99.90
19242;DHT22;9755;47.790;9.620;2023-05-14T02:21:06;10.70;99.90
19242;DHT22;9755;47.790;9.620;2023-05-14T02:23:33;10.70;99.90
19242;DHT22;9755;47.790;9.620;2023-05-14T02:26:00;10.80;99.90
19242;DHT22;9755;47.790;9.620;2023-05-14T02:28:29;10.80;99.90
19242;DHT22;9755;47.790;9.620;2023-05-14T02:30:59;10.80;99.90
19242;DHT22;9755;47.790;9.620;2023-05-14T02:33:26;10.80;99.90
19242;DHT22;9755;47.790;9.620;2023-05-14T02:35:56;10.80;99.90
19242;DHT22;9755;47.790;9.620;2023-05-14T02:38:25;10.80;99.90
19242;DHT22;9755;47.790;9.620;2023-05-14T02:40:54;10.80;99.90
19242;DHT22;9755;47.790;9.620;2023-05-14T02:43:23;10.90;99.90
19242;DHT22;9755;47.790;9.620;2023-05-14T02:45:52;10.90;99.90
19242;DHT22;9755;47.790;9.620;2023-05-14T02:48:19;10.90;99.90
19242;DHT22;9755;47.790;9.620;2023-05-14T02:50:47;10.90;99.90
19242;DHT22;9755;47.790;9.620;2023-05-14T02:53:14;10.90;99.90
19242;DHT22;9755;47.790;9.620;2023-05-14T02:55:43;10.90;99.90
19242;DHT22;9755;47.790;9.620;2023-05-14T02:58:11;10.90;99.90
19242;DHT22;9755;47.790;9.620;2023-05-14T03:00:38;10.90;99.90
19242;DHT22;9755;47.790;9.620;2023-05-14T03:03:07;10.80;99.90
19242;DHT22;9755;47.790;9.620;2023-05-14T03:05:34;10.90;99.90
19242;DHT22;9755;47.790;9.620;2023-05-14T03:08:07;10.80;99.90
19242;DHT22;9755;47.790;9.620;2023-05-14T03:10:34;10.80;99.90
19242;DHT22;9755;47.790;9.620;2023-05-14T03:13:07;10.80;99.90
19242;DHT22;9755;47.790;9.620;2023-05-14T03:15:40;10.80;99.90
19242;DHT22;9755;47.790;9.620;2023-05-14T03:18:08;10.80;99.90
19242;DHT22;9755;47.790;9.620;2023-05-14T03:20:38;10.80;99.90
19242;DHT22;9755;47.790;9.620;2023-05-14T03:23:09;10.80;99.90
19242;DHT22;9755;47.790;9.620;2023-05-14T03:25:36;10.80;99.90
19242;DHT22;9755;47.790;9.620;2023-05-14T03:28:03;10.80;99.90
19242;DHT22;9755;47.790;9.620;2023-05-14T03:30:30;10.80;99.90
19242;DHT22;9755;47.790;9.620;2023-05-14T03:33:00;10.80;99.90
19242;DHT22;9755;47.790;9.620;2023-05-14T03:35:31;10.80;99.90
19242;DHT22;9755;47.790;9.620;2023-05-14T03:37:58;10.80;99.90
19242;DHT22;9755;47.790;9.620;2023-05-14T03:40:26;10.80;99.90
19242;DHT22;9755;47.790;9.620;2023-05-14T03:42:55;10.80;99.90
19242;DHT22;9755;47.790;9.620;2023-05-14T03:45:22;10.80;99.90
19242;DHT22;9755;47.790;9.620;2023-05-14T03:47:49;10.80;99.90
19242;DHT22;9755;47.790;9.620;2023-05-14T03:50:16;10.80;99.90
19242;DHT22;9755;47.790;9.620;2023-05-14T03:52:45;10.90;99.90
19242;DHT22;9755;47.790;9.620;2023-05-14T03:55:14;10.90;99.90
19242;DHT22;9755;47.790;9.620;2023-05-14T03:57:43;10.90;99.90
19242;DHT22;9755;47.790;9.620;2023-05-14T04:00:13;10.90;99.90
19242;DHT22;9755;47.790;9.620;2023-05-14T04:02:43;10.90;99.90
19242;DHT22;9755;47.790;9.620;2023-05-14T04:05:10;10.90;99.90
19242;DHT22;9755;47.790;9.620;2023-05-14T04:07:40;10.90;99.90
19242;DHT22;9755;47.790;9.620;2023-05-14T04:10:09;10.90;99.90
19242;DHT22;9755;47.790;9.620;2023-05-14T04:12:36;10.90;99.90
19242;DHT22;9755;47.790;9.620;2023-05-14T04:15:03;11.00;99.90
19242;DHT22;9755;47.790;9.620;2023-05-14T04:17:34;11.00;99.90
19242;DHT22;9755;47.790;9.620;2023-05-14T04:20:01;11.00;99.90
19242;DHT22;9755;47.790;9.620;2023-05-14T04:22:29;11.00;99.90
19242;DHT22;9755;47.790;9.620;2023-05-14T04:24:56;11.10;99.90
19242;DHT22;9755;47.790;9.620;2023-05-14T04:27:25;11.00;99.90
19242;DHT22;9755;47.790;9.620;2023-05-14T04:29:52;11.10;99.90
19242;DHT22;9755;47.790;9.620;2023-05-14T04:32:19;11.10;99.90
19242;DHT22;9755;47.790;9.620;2023-05-14T04:34:49;11.10;99.90
19242;DHT22;9755;47.790;9.620;2023-05-14T04:37:16;11.10;99.90
19242;DHT22;9755;47.790;9.620;2023-05-14T04:39:50;11.10;99.90
19242;DHT22;9755;47.790;9.620;2023-05-14T04:42:17;11.10;99.90
19242;DHT22;9755;47.790;9.620;2023-05-14T04:44:45;11.10;99.90
19242;DHT22;9755;47.790;9.620;2023-05-14T04:47:13;11.10;99.90
19242;DHT22;9755;47.790;9.620;2023-05-14T04:49:40;11.00;99.90
19242;DHT22;9755;47.790;9.620;2023-05-14T04:52:07;11.00;99.90
19242;DHT22;9755;47.790;9.620;2023-05-14T04:54:34;11.00;99.90
19242;DHT22;9755;47.790;9.620;2023-05-14T04:57:01;11.00;99.90
19242;DHT22;9755;47.790;9.620;2023-05-14T04:59:28;11.00;99.90
19242;DHT22;9755;47.790;9.620;2023-05-14T05:02:00;11.00;99.90
19242;DHT22;9755;47.790;9.620;2023-05-14T05:04:27;11.00;99.90
19242;DHT22;9755;47.790;9.620;2023-05-14T05:07:02;11.00;99.90
19242;DHT22;9755;47.790;9.620;2023-05-14T05:09:30;11.00;99.90
19242;DHT22;9755;47.790;9.620;2023-05-14T05:11:59;11.00;99.90
19242;DHT22;9755;47.790;9.620;2023-05-14T05:14:26;11.00;99.90
19242;DHT22;9755;47.790;9.620;2023-05-14T05:17:12;11.00;99.90
19242;DHT22;9755;47.790;9.620;2023-05-14T05:19:39;11.10;99.90
19242;DHT22;9755;47.790;9.620;2023-05-14T05:22:06;11.00;99.90
19242;DHT22;9755;47.790;9.620;2023-05-14T05:24:34;11.10;99.90
19242;DHT22;9755;47.790;9.620;2023-05-14T05:27:02;11.10;99.90
19242;DHT22;9755;47.790;9.620;2023-05-14T05:29:30;11.10;99.90
19242;DHT22;9755;47.790;9.620;2023-05-14T05:31:57;11.10;99.90
19242;DHT22;9755;47.790;9.620;2023-05-14T05:34:25;11.10;99.90
19242;DHT22;9755;47.790;9.620;2023-05-14T05:36:57;11.10;99.90
19242;DHT22;9755;47.790;9.620;2023-05-14T05:39:25;11.20;99.90
19242;DHT22;9755;47.790;9.620;2023-05-14T05:41:59;11.30;99.90
19242;DHT22;9755;47.790;9.620;2023-05-14T05:44:40;11.30;99.90
19242;DHT22;9755;47.790;9.620;2023-05-14T05:47:07;11.30;99.90
19242;DHT22;9755;47.790;9.620;2023-05-14T05:49:38;11.30;99.90
19242;DHT22;9755;47.790;9.620;2023-05-14T05:52:07;11.30;99.90
19242;DHT22;9755;47.790;9.620;2023-05-14T05:54:35;11.30;99.90
19242;DHT22;9755;47.790;9.620;2023-05-14T05:57:04;11.30;99.90
19242;DHT22;9755;47.790;9.620;2023-05-14T05:59:31;11.30;99.90
19242;DHT22;9755;47.790;9.620;2023-05-14T06:01:58;11.30;99.90
19242;DHT22;9755;47.790;9.620;2023-05-14T06:04:25;11.40;99.90
19242;DHT22;9755;47.790;9.620;2023-05-14T06:06:54;11.50;99.90
19242;DHT22;9755;47.790;9.620;2023-05-14T06:09:21;11.60;99.90
19242;DHT22;9755;47.790;9.620;2023-05-14T06:11:54;11.60;99.90
19242;DHT22;9755;47.790;9.620;2023-05-14T06:14:24;11.50;99.90
19242;DHT22;9755;47.790;9.620;2023-05-14T06:16:51;11.50;99.90
19242;DHT22;9755;47.790;9.620;2023-05-14T06:19:22;11.40;99.90
19242;DHT22;9755;47.790;9.620;2023-05-14T06:21:49;11.40;99.90
19242;DHT22;9755;47.790;9.620;2023-05-14T06:24:17;11.40;99.90
19242;DHT22;9755;47.790;9.620;2023-05-14T06:26:46;11.40;99.90
19242;DHT22;9755;47.790;9.620;2023-05-14T06:29:13;11.40;99.90
19242;DHT22;9755;47.790;9.620;2023-05-14T06:31:40;11.40;99.90
19242;DHT22;9755;47.790;9.620;2023-05-14T06:34:09;11.40;99.90
19242;DHT22;9755;47.790;9.620;2023-05-14T06:36:36;11.40;99.90
19242;DHT22;9755;47.790;9.620;2023-05-14T06:39:03;11.40;99.90
19242;DHT22;9755;47.790;9.620;2023-05-14T06:41:34;11.50;99.90
19242;DHT22;9755;47.790;9.620;2023-05-14T06:44:01;11.50;99.90
19242;DHT22;9755;47.790;9.620;2023-05-14T06:46:28;11.50;99.90
19242;DHT22;9755;47.790;9.620;2023-05-14T06:48:55;11.60;99.90
19242;DHT22;9755;47.790;9.620;2023-05-14T06:51:25;11.70;99.90
19242;DHT22;9755;47.790;9.620;2023-05-14T06:53:52;11.80;99.90
19242;DHT22;9755;47.790;9.620;2023-05-14T06:56:21;11.90;99.90
19242;DHT22;9755;47.790;9.620;2023-05-14T06:58:49;11.90;99.90
19242;DHT22;9755;47.790;9.620;2023-05-14T07:01:18;11.90;99.90
19242;DHT22;9755;47.790;9.620;2023-05-14T07:03:53;11.90;99.90
19242;DHT22;9755;47.790;9.620;2023-05-14T07:06:22;11.90;99.90
19242;DHT22;9755;47.790;9.620;2023-05-14T07:08:51;11.90;99.90
19242;DHT22;9755;47.790;9.620;2023-05-14T07:11:20;11.90;99.90
19242;DHT22;9755;47.790;9.620;2023-05-14T07:13:49;11.90;99.90
19242;DHT22;9755;47.790;9.620;2023-05-14T07:16:16;11.90;99.90
19242;DHT22;9755;47.790;9.620;2023-05-14T07:18:46;11.90;99.90
19242;DHT22;9755;47.790;9.620;2023-05-14T07:21:18;11.90;99.90
19242;DHT22;9755;47.790;9.620;2023-05-14T07:23:47;11.90;99.90
19242;DHT22;9755;47.790;9.620;2023-05-14T07:26:17;12.00;99.90
19242;DHT22;9755;47.790;9.620;2023-05-14T07:28:46;12.00;99.90
19242;DHT22;9755;47.790;9.620;2023-05-14T07:31:14;12.10;99.90
19242;DHT22;9755;47.790;9.620;2023-05-14T07:33:44;12.10;99.90
19242;DHT22;9755;47.790;9.620;2023-05-14T07:36:11;12.20;99.90
19242;DHT22;9755;47.790;9.620;2023-05-14T07:38:40;12.20;99.90
19242;DHT22;9755;47.790;9.620;2023-05-14T07:41:10;12.30;99.90
19242;DHT22;9755;47.790;9.620;2023-05-14T07:43:40;12.20;99.90
19242;DHT22;9755;47.790;9.620;2023-05-14T07:46:07;12.30;99.90
19242;DHT22;9755;47.790;9.620;2023-05-14T07:48:35;12.30;99.90
19242;DHT22;9755;47.790;9.620;2023-05-14T07:51:02;12.40;99.90
19242;DHT22;9755;47.790;9.620;2023-05-14T07:53:29;12.40;99.90
19242;DHT22;9755;47.790;9.620;2023-05-14T07:55:56;12.50;99.90
19242;DHT22;9755;47.790;9.620;2023-05-14T07:58:27;12.60;99.90
19242;DHT22;9755;47.790;9.620;2023-05-14T08:00:54;12.50;99.90
19242;DHT22;9755;47.790;9.620;2023-05-14T08:03:31;12.50;99.90
19242;DHT22;9755;47.790;9.620;2023-05-14T08:06:04;12.50;99.90
19242;DHT22;9755;47.790;9.620;2023-05-14T08:08:31;12.40;99.90
19242;DHT22;9755;47.790;9.620;2023-05-14T08:11:09;12.40;99.90
19242;DHT22;9755;47.790;9.620;2023-05-14T08:13:36;12.30;99.90
19242;DHT22;9755;47.790;9.620;2023-05-14T08:16:06;12.30;99.90
19242;DHT22;9755;47.790;9.620;2023-05-14T08:18:33;12.30;99.90
19242;DHT22;9755;47.790;9.620;2023-05-14T08:21:03;12.30;99.90
19242;DHT22;9755;47.790;9.620;2023-05-14T08:23:33;12.20;99.90
19242;DHT22;9755;47.790;9.620;2023-05-14T08:26:00;12.10;99.90
19242;DHT22;9755;47.790;9.620;2023-05-14T08:28:30;12.00;99.90
19242;DHT22;9755;47.790;9.620;2023-05-14T08:31:00;12.00;99.90
19242;DHT22;9755;47.790;9.620;2023-05-14T08:33:29;11.90;99.90
19242;DHT22;9755;47.790;9.620;2023-05-14T08:35:56;12.00;99.90
19242;DHT22;9755;47.790;9.620;2023-05-14T08:38:26;12.00;99.90
19242;DHT22;9755;47.790;9.620;2023-05-14T08:40:55;12.10;99.90
19242;DHT22;9755;47.790;9.620;2023-05-14T08:43:25;12.10;99.90
19242;DHT22;9755;47.790;9.620;2023-05-14T08:45:57;12.20;99.90
19242;DHT22;9755;47.790;9.620;2023-05-14T08:48:27;12.30;99.90
19242;DHT22;9755;47.790;9.620;2023-05-14T08:51:08;12.30;99.90
19242;DHT22;9755;47.790;9.620;2023-05-14T08:53:38;12.60;99.90
19242;DHT22;9755;47.790;9.620;2023-05-14T08:56:06;12.70;99.90
19242;DHT22;9755;47.790;9.620;2023-05-14T08:58:37;12.90;99.90
19242;DHT22;9755;47.790;9.620;2023-05-14T09:01:05;13.20;99.90
19242;DHT22;9755;47.790;9.620;2023-05-14T09:03:35;13.50;99.90
19242;DHT22;9755;47.790;9.620;2023-05-14T09:06:05;13.70;99.90
19242;DHT22;9755;47.790;9.620;2023-05-14T09:08:36;13.60;99.90
19242;DHT22;9755;47.790;9.620;2023-05-14T09:11:05;13.70;99.90
19242;DHT22;9755;47.790;9.620;2023-05-14T09:13:32;13.80;99.90
19242;DHT22;9755;47.790;9.620;2023-05-14T09:16:08;13.70;99.90
19242;DHT22;9755;47.790;9.620;2023-05-14T09:18:35;13.80;99.90
19242;DHT22;9755;47.790;9.620;2023-05-14T09:21:07;13.80;99.90
19242;DHT22;9755;47.790;9.620;2023-05-14T09:23:36;13.60;99.90
19242;DHT22;9755;47.790;9.620;2023-05-14T09:26:09;13.50;99.90
19242;DHT22;9755;47.790;9.620;2023-05-14T09:28:40;13.50;99.90
19242;DHT22;9755;47.790;9.620;2023-05-14T09:31:10;13.50;99.90
19242;DHT22;9755;47.790;9.620;2023-05-14T09:33:39;13.50;99.90
19242;DHT22;9755;47.790;9.620;2023-05-14T09:36:13;13.50;99.90
19242;DHT22;9755;47.790;9.620;2023-05-14T09:38:43;13.60;99.90
19242;DHT22;9755;47.790;9.620;2023-05-14T09:41:10;13.70;99.90
19242;DHT22;9755;47.790;9.620;2023-05-14T09:43:37;13.80;99.90
19242;DHT22;9755;47.790;9.620;2023-05-14T09:46:04;14.00;99.90
19242;DHT22;9755;47.790;9.620;2023-05-14T09:48:34;14.40;99.90
19242;DHT22;9755;47.790;9.620;2023-05-14T09:51:03;14.60;99.90
19242;DHT22;9755;47.790;9.620;2023-05-14T09:53:31;14.80;99.90
19242;DHT22;9755;47.790;9.620;2023-05-14T09:56:00;15.20;99.90
19242;DHT22;9755;47.790;9.620;2023-05-14T09:58:27;15.70;99.90
19242;DHT22;9755;47.790;9.620;2023-05-14T10:00:58;15.60;99.90
19242;DHT22;9755;47.790;9.620;2023-05-14T10:03:31;15.80;99.90
19242;DHT22;9755;47.790;9.620;2023-05-14T10:06:02;15.90;99.90
19242;DHT22;9755;47.790;9.620;2023-05-14T10:08:33;15.90;99.90
19242;DHT22;9755;47.790;9.620;2023-05-14T10:11:05;15.70;99.90
19242;DHT22;9755;47.790;9.620;2023-05-14T10:13:38;15.70;99.90
19242;DHT22;9755;47.790;9.620;2023-05-14T10:16:10;15.60;99.90
19242;DHT22;9755;47.790;9.620;2023-05-14T10:18:40;15.40;99.90
19242;DHT22;9755;47.790;9.620;2023-05-14T10:21:14;15.40;99.90
19242;DHT22;9755;47.790;9.620;2023-05-14T10:23:42;16.10;99.90
19242;DHT22;9755;47.790;9.620;2023-05-14T10:26:11;16.60;99.90
19242;DHT22;9755;47.790;9.620;2023-05-14T10:28:38;16.80;99.90
19242;DHT22;9755;47.790;9.620;2023-05-14T10:31:10;16.70;99.90
19242;DHT22;9755;47.790;9.620;2023-05-14T10:33:51;16.20;99.90
19242;DHT22;9755;47.790;9.620;2023-05-14T10:36:21;16.20;99.90
19242;DHT22;9755;47.790;9.620;2023-05-14T10:38:54;16.40;99.90
19242;DHT22;9755;47.790;9.620;2023-05-14T10:41:25;16.50;99.90
19242;DHT22;9755;47.790;9.620;2023-05-14T10:43:52;16.80;99.90
19242;DHT22;9755;47.790;9.620;2023-05-14T10:46:24;16.80;99.90
19242;DHT22;9755;47.790;9.620;2023-05-14T10:48:51;16.70;99.90
19242;DHT22;9755;47.790;9.620;2023-05-14T10:51:18;16.70;99.90
19242;DHT22;9755;47.790;9.620;2023-05-14T10:53:50;16.70;99.90
19242;DHT22;9755;47.790;9.620;2023-05-14T10:56:18;16.30;99.90
19242;DHT22;9755;47.790;9.620;2023-05-14T10:58:49;16.10;99.90
19242;DHT22;9755;47.790;9.620;2023-05-14T11:01:17;16.20;99.90
19242;DHT22;9755;47.790;9.620;2023-05-14T11:03:45;16.00;99.90
19242;DHT22;9755;47.790;9.620;2023-05-14T11:06:15;15.90;99.90
19242;DHT22;9755;47.790;9.620;2023-05-14T11:08:42;15.90;99.90
19242;DHT22;9755;47.790;9.620;2023-05-14T11:11:11;15.90;99.90
19242;DHT22;9755;47.790;9.620;2023-05-14T11:13:38;15.80;99.90
19242;DHT22;9755;47.790;9.620;2023-05-14T11:16:08;15.90;99.90
19242;DHT22;9755;47.790;9.620;2023-05-14T11:18:35;15.90;99.90
19242;DHT22;9755;47.790;9.620;2023-05-14T11:21:03;16.00;99.90
19242;DHT22;9755;47.790;9.620;2023-05-14T11:23:32;16.20;99.90
19242;DHT22;9755;47.790;9.620;2023-05-14T11:26:01;16.20;99.90
19242;DHT22;9755;47.790;9.620;2023-05-14T11:28:31;15.90;99.90
19242;DHT22;9755;47.790;9.620;2023-05-14T11:30:59;15.90;99.90
19242;DHT22;9755;47.790;9.620;2023-05-14T11:33:41;15.40;99.90
19242;DHT22;9755;47.790;9.620;2023-05-14T11:36:23;14.70;99.90
19242;DHT22;9755;47.790;9.620;2023-05-14T11:38:55;14.10;99.90
19242;DHT22;9755;47.790;9.620;2023-05-14T11:41:25;14.20;99.90
19242;DHT22;9755;47.790;9.620;2023-05-14T11:43:55;14.10;99.90
19242;DHT22;9755;47.790;9.620;2023-05-14T11:46:26;14.00;99.90
19242;DHT22;9755;47.790;9.620;2023-05-14T11:48:59;14.00;99.90
19242;DHT22;9755;47.790;9.620;2023-05-14T11:51:35;14.20;99.90
19242;DHT22;9755;47.790;9.620;2023-05-14T11:54:05;14.40;99.90
19242;DHT22;9755;47.790;9.620;2023-05-14T11:56:39;14.30;99.90
19242;DHT22;9755;47.790;9.620;2023-05-14T11:59:11;14.60;99.90
19242;DHT22;9755;47.790;9.620;2023-05-14T12:01:43;14.70;99.90
19242;DHT22;9755;47.790;9.620;2023-05-14T12:04:12;15.00;99.90
19242;DHT22;9755;47.790;9.620;2023-05-14T12:06:51;15.20;99.90
19242;DHT22;9755;47.790;9.620;2023-05-14T12:09:18;15.30;99.90
19242;DHT22;9755;47.790;9.620;2023-05-14T12:11:49;15.50;99.90
19242;DHT22;9755;47.790;9.620;2023-05-14T12:14:20;15.50;99.90
19242;DHT22;9755;47.790;9.620;2023-05-14T12:16:48;15.60;99.90
19242;DHT22;9755;47.790;9.620;2023-05-14T12:19:20;15.60;99.90
19242;DHT22;9755;47.790;9.620;2023-05-14T12:21:50;16.00;99.90
19242;DHT22;9755;47.790;9.620;2023-05-14T12:24:21;16.30;99.90
19242;DHT22;9755;47.790;9.620;2023-05-14T12:26:49;16.40;99.90
19242;DHT22;9755;47.790;9.620;2023-05-14T12:29:17;16.40;99.90
19242;DHT22;9755;47.790;9.620;2023-05-14T12:31:48;16.50;99.90
19242;DHT22;9755;47.790;9.620;2023-05-14T12:34:37;16.70;99.90
19242;DHT22;9755;47.790;9.620;2023-05-14T12:37:09;16.70;99.90
19242;DHT22;9755;47.790;9.620;2023-05-14T12:39:37;16.80;99.90
19242;DHT22;9755;47.790;9.620;2023-05-14T12:42:07;16.70;99.90
19242;DHT22;9755;47.790;9.620;2023-05-14T12:44:36;16.70;99.90
19242;DHT22;9755;47.790;9.620;2023-05-14T12:47:09;16.50;99.90
19242;DHT22;9755;47.790;9.620;2023-05-14T12:49:47;16.20;99.90
19242;DHT22;9755;47.790;9.620;2023-05-14T12:52:14;15.80;99.90
19242;DHT22;9755;47.790;9.620;2023-05-14T12:54:41;15.50;99.90
19242;DHT22;9755;47.790;9.620;2023-05-14T12:57:11;14.90;99.90
19242;DHT22;9755;47.790;9.620;2023-05-14T12:59:38;15.30;99.90
19242;DHT22;9755;47.790;9.620;2023-05-14T13:02:07;15.50;99.90
19242;DHT22;9755;47.790;9.620;2023-05-14T13:04:34;16.10;99.90
19242;DHT22;9755;47.790;9.620;2023-05-14T13:07:03;16.50;99.90
19242;DHT22;9755;47.790;9.620;2023-05-14T13:09:33;16.70;99.90
19242;DHT22;9755;47.790;9.620;2023-05-14T13:12:03;16.90;99.90
19242;DHT22;9755;47.790;9.620;2023-05-14T13:14:30;17.50;99.90
19242;DHT22;9755;47.790;9.620;2023-05-14T13:16:58;17.70;99.90
19242;DHT22;9755;47.790;9.620;2023-05-14T13:19:25;16.80;99.90
19242;DHT22;9755;47.790;9.620;2023-05-14T13:21:55;16.40;99.90
19242;DHT22;9755;47.790;9.620;2023-05-14T13:24:24;16.00;99.90
19242;DHT22;9755;47.790;9.620;2023-05-14T13:26:59;16.10;99.90
19242;DHT22;9755;47.790;9.620;2023-05-14T13:29:26;16.10;99.90
19242;DHT22;9755;47.790;9.620;2023-05-14T13:31:59;16.30;99.90
19242;DHT22;9755;47.790;9.620;2023-05-14T13:34:27;16.70;99.90
19242;DHT22;9755;47.790;9.620;2023-05-14T13:36:57;16.70;99.90
19242;DHT22;9755;47.790;9.620;2023-05-14T13:39:41;16.90;99.90
19242;DHT22;9755;47.790;9.620;2023-05-14T13:42:08;16.90;99.90
19242;DHT22;9755;47.790;9.620;2023-05-14T13:44:36;16.60;99.90
19242;DHT22;9755;47.790;9.620;2023-05-14T13:47:31;16.50;99.90
19242;DHT22;9755;47.790;9.620;2023-05-14T13:50:03;16.70;99.90
19242;DHT22;9755;47.790;9.620;2023-05-14T13:52:30;17.10;99.90
19242;DHT22;9755;47.790;9.620;2023-05-14T13:54:59;17.80;99.90
19242;DHT22;9755;47.790;9.620;2023-05-14T13:57:28;18.40;98.80
19242;DHT22;9755;47.790;9.620;2023-05-14T13:59:55;18.10;98.10
19242;DHT22;9755;47.790;9.620;2023-05-14T14:02:23;18.50;96.90
19242;DHT22;9755;47.790;9.620;2023-05-14T14:04:50;19.30;95.50
19242;DHT22;9755;47.790;9.620;2023-05-14T14:07:21;20.50;93.10
19242;DHT22;9755;47.790;9.620;2023-05-14T14:09:50;20.20;92.00
19242;DHT22;9755;47.790;9.620;2023-05-14T14:12:22;20.70;90.40
19242;DHT22;9755;47.790;9.620;2023-05-14T14:14:49;19.90;90.10
19242;DHT22;9755;47.790;9.620;2023-05-14T14:17:16;19.40;92.30
19242;DHT22;9755;47.790;9.620;2023-05-14T14:19:46;20.00;90.70
19242;DHT22;9755;47.790;9.620;2023-05-14T14:22:13;19.80;90.90
19242;DHT22;9755;47.790;9.620;2023-05-14T14:24:41;20.00;91.20
19242;DHT22;9755;47.790;9.620;2023-05-14T14:27:10;20.60;91.50
19242;DHT22;9755;47.790;9.620;2023-05-14T14:29:54;20.40;90.10
19242;DHT22;9755;47.790;9.620;2023-05-14T14:32:21;21.00;84.80
19242;DHT22;9755;47.790;9.620;2023-05-14T14:34:48;21.10;78.60
19242;DHT22;9755;47.790;9.620;2023-05-14T14:37:15;20.60;78.80
19242;DHT22;9755;47.790;9.620;2023-05-14T14:52:07;21.30;77.60
19242;DHT22;9755;47.790;9.620;2023-05-14T14:54:34;19.00;77.80
19242;DHT22;9755;47.790;9.620;2023-05-14T14:57:04;18.40;82.30
19242;DHT22;9755;47.790;9.620;2023-05-14T14:59:34;18.20;85.40
19242;DHT22;9755;47.790;9.620;2023-05-14T15:02:10;17.70;87.20
19242;DHT22;9755;47.790;9.620;2023-05-14T15:04:40;17.50;91.40
19242;DHT22;9755;47.790;9.620;2023-05-14T15:07:08;18.00;90.50
19242;DHT22;9755;47.790;9.620;2023-05-14T15:09:37;18.10;87.20
19242;DHT22;9755;47.790;9.620;2023-05-14T15:12:08;19.10;88.50
19242;DHT22;9755;47.790;9.620;2023-05-14T15:14:44;20.00;80.40
19242;DHT22;9755;47.790;9.620;2023-05-14T15:17:12;20.50;80.80
19242;DHT22;9755;47.790;9.620;2023-05-14T15:19:42;20.30;80.90
19242;DHT22;9755;47.790;9.620;2023-05-14T15:22:11;19.40;84.70
19242;DHT22;9755;47.790;9.620;2023-05-14T15:24:43;18.90;85.70
19242;DHT22;9755;47.790;9.620;2023-05-14T15:27:12;17.60;90.90
19242;DHT22;9755;47.790;9.620;2023-05-14T15:29:42;17.50;91.60
19242;DHT22;9755;47.790;9.620;2023-05-14T15:32:17;17.40;92.50
19242;DHT22;9755;47.790;9.620;2023-05-14T15:34:44;17.20;92.40
19242;DHT22;9755;47.790;9.620;2023-05-14T15:37:13;17.20;93.40
19242;DHT22;9755;47.790;9.620;2023-05-14T15:39:44;17.60;92.60
19242;DHT22;9755;47.790;9.620;2023-05-14T15:42:11;17.70;92.50
19242;DHT22;9755;47.790;9.620;2023-05-14T15:44:38;17.70;92.00
19242;DHT22;9755;47.790;9.620;2023-05-14T15:47:08;17.50;92.80
19242;DHT22;9755;47.790;9.620;2023-05-14T15:49:39;17.40;94.10
19242;DHT22;9755;47.790;9.620;2023-05-14T15:52:08;16.90;97.30
19242;DHT22;9755;47.790;9.620;2023-05-14T15:54:35;16.30;99.90
19242;DHT22;9755;47.790;9.620;2023-05-14T15:57:08;16.10;99.90
19242;DHT22;9755;47.790;9.620;2023-05-14T15:59:37;15.80;99.90
19242;DHT22;9755;47.790;9.620;2023-05-14T16:02:11;15.40;99.90
19242;DHT22;9755;47.790;9.620;2023-05-14T16:04:40;14.90;99.90
19242;DHT22;9755;47.790;9.620;2023-05-14T16:07:08;14.50;99.90
19242;DHT22;9755;47.790;9.620;2023-05-14T16:09:37;14.00;99.90
19242;DHT22;9755;47.790;9.620;2023-05-14T16:12:07;13.90;99.90
19242;DHT22;9755;47.790;9.620;2023-05-14T16:14:39;13.70;99.90